sensor_id;sensor_type;location;lat;lon;timestamp;P1;durP1;ratioP1;P2;durP2;ratioP2
1879;SDS011;49285;49.002;8.390;2022-08-19T00:01:49;16.63;;;14.93;;
1879;SDS011;49285;49.002;8.390;2022-08-19T00:04:17;17.27;;;15.37;;
1879;SDS011;49285;49.002;8.390;2022-08-19T00:06:46;16.77;;;14.97;;
1879;SDS011;49285;49.002;8.390;2022-08-19T00:09:13;17.10;;;15.40;;
1879;SDS011;49285;49.002;8.390;2022-08-19T00:11:41;16.90;;;15.30;;
1879;SDS011;49285;49.002;8.390;2022-08-19T00:14:09;17.33;;;15.37;;
1879;SDS011;49285;49.002;8.390;2022-08-19T00:16:37;17.77;;;15.87;;
1879;SDS011;49285;49.002;8.390;2022-08-19T00:19:03;16.97;;;15.17;;
1879;SDS011;49285;49.002;8.390;2022-08-19T00:21:30;18.33;;;16.40;;
1879;SDS011;49285;49.002;8.390;2022-08-19T00:23:56;17.07;;;15.03;;
1879;SDS011;49285;49.002;8.390;2022-08-19T00:26:26;17.53;;;15.93;;
1879;SDS011;49285;49.002;8.390;2022-08-19T00:28:52;18.73;;;16.87;;
1879;SDS011;49285;49.002;8.390;2022-08-19T00:31:18;16.77;;;15.17;;
1879;SDS011;49285;49.002;8.390;2022-08-19T00:33:44;18.03;;;15.23;;
1879;SDS011;49285;49.002;8.390;2022-08-19T00:36:10;16.50;;;14.87;;
1879;SDS011;49285;49.002;8.390;2022-08-19T00:38:37;16.33;;;14.80;;
1879;SDS011;49285;49.002;8.390;2022-08-19T00:41:06;15.97;;;14.20;;
1879;SDS011;49285;49.002;8.390;2022-08-19T00:43:32;16.40;;;14.90;;
1879;SDS011;49285;49.002;8.390;2022-08-19T00:45:58;16.47;;;15.00;;
1879;SDS011;49285;49.002;8.390;2022-08-19T00:48:23;16.03;;;14.43;;
1879;SDS011;49285;49.002;8.390;2022-08-19T00:50:49;18.27;;;16.00;;
1879;SDS011;49285;49.002;8.390;2022-08-19T00:53:18;16.33;;;14.73;;
1879;SDS011;49285;49.002;8.390;2022-08-19T00:55:48;17.27;;;15.57;;
1879;SDS011;49285;49.002;8.390;2022-08-19T00:58:19;20.80;;;14.73;;
1879;SDS011;49285;49.002;8.390;2022-08-19T01:00:47;16.17;;;14.67;;
1879;SDS011;49285;49.002;8.390;2022-08-19T01:03:15;17.63;;;15.83;;
1879;SDS011;49285;49.002;8.390;2022-08-19T01:05:43;18.70;;;16.20;;
1879;SDS011;49285;49.002;8.390;2022-08-19T01:08:10;17.20;;;15.60;;
1879;SDS011;49285;49.002;8.390;2022-08-19T01:10:37;17.37;;;15.87;;
1879;SDS011;49285;49.002;8.390;2022-08-19T01:13:07;17.07;;;15.27;;
1879;SDS011;49285;49.002;8.390;2022-08-19T01:15:39;18.00;;;16.30;;
1879;SDS011;49285;49.002;8.390;2022-08-19T01:18:11;17.90;;;16.10;;
1879;SDS011;49285;49.002;8.390;2022-08-19T01:20:38;18.20;;;16.40;;
1879;SDS011;49285;49.002;8.390;2022-08-19T01:23:05;18.53;;;16.50;;
1879;SDS011;49285;49.002;8.390;2022-08-19T01:25:32;16.93;;;15.33;;
1879;SDS011;49285;49.002;8.390;2022-08-19T01:28:08;19.03;;;17.13;;
1879;SDS011;49285;49.002;8.390;2022-08-19T01:30:40;18.73;;;17.10;;
1879;SDS011;49285;49.002;8.390;2022-08-19T01:33:06;19.20;;;17.30;;
1879;SDS011;49285;49.002;8.390;2022-08-19T01:35:32;18.60;;;16.80;;
1879;SDS011;49285;49.002;8.390;2022-08-19T01:37:59;16.77;;;15.23;;
1879;SDS011;49285;49.002;8.390;2022-08-19T01:40:29;19.23;;;17.37;;
1879;SDS011;49285;49.002;8.390;2022-08-19T01:42:58;19.73;;;17.70;;
1879;SDS011;49285;49.002;8.390;2022-08-19T01:45:25;19.10;;;17.30;;
1879;SDS011;49285;49.002;8.390;2022-08-19T01:47:53;18.47;;;16.57;;
1879;SDS011;49285;49.002;8.390;2022-08-19T01:50:19;18.17;;;16.20;;
1879;SDS011;49285;49.002;8.390;2022-08-19T01:52:45;20.07;;;17.93;;
1879;SDS011;49285;49.002;8.390;2022-08-19T01:55:13;19.50;;;17.60;;
1879;SDS011;49285;49.002;8.390;2022-08-19T01:57:41;20.53;;;18.43;;
1879;SDS011;49285;49.002;8.390;2022-08-19T02:00:12;21.70;;;19.40;;
1879;SDS011;49285;49.002;8.390;2022-08-19T02:02:40;21.03;;;18.93;;
1879;SDS011;49285;49.002;8.390;2022-08-19T02:05:06;22.37;;;19.97;;
1879;SDS011;49285;49.002;8.390;2022-08-19T02:07:34;20.43;;;18.50;;
1879;SDS011;49285;49.002;8.390;2022-08-19T02:10:03;22.43;;;20.13;;
1879;SDS011;49285;49.002;8.390;2022-08-19T02:12:30;21.23;;;19.20;;
1879;SDS011;49285;49.002;8.390;2022-08-19T02:14:56;22.70;;;20.43;;
1879;SDS011;49285;49.002;8.390;2022-08-19T02:17:22;21.80;;;19.50;;
1879;SDS011;49285;49.002;8.390;2022-08-19T02:19:47;22.00;;;19.77;;
1879;SDS011;49285;49.002;8.390;2022-08-19T02:22:14;21.00;;;19.00;;
1879;SDS011;49285;49.002;8.390;2022-08-19T02:24:39;23.53;;;21.13;;
1879;SDS011;49285;49.002;8.390;2022-08-19T02:27:05;21.30;;;19.20;;
1879;SDS011;49285;49.002;8.390;2022-08-19T02:29:31;21.30;;;19.10;;
1879;SDS011;49285;49.002;8.390;2022-08-19T02:31:56;21.07;;;18.83;;
1879;SDS011;49285;49.002;8.390;2022-08-19T02:34:23;21.47;;;19.27;;
1879;SDS011;49285;49.002;8.390;2022-08-19T02:36:50;23.60;;;21.20;;
1879;SDS011;49285;49.002;8.390;2022-08-19T02:39:16;23.50;;;21.00;;
1879;SDS011;49285;49.002;8.390;2022-08-19T02:41:42;26.10;;;21.37;;
1879;SDS011;49285;49.002;8.390;2022-08-19T02:44:07;22.30;;;20.10;;
1879;SDS011;49285;49.002;8.390;2022-08-19T02:46:33;25.67;;;23.17;;
1879;SDS011;49285;49.002;8.390;2022-08-19T02:49:04;22.53;;;20.27;;
1879;SDS011;49285;49.002;8.390;2022-08-19T02:51:52;24.47;;;21.97;;
1879;SDS011;49285;49.002;8.390;2022-08-19T02:54:19;25.63;;;23.03;;
1879;SDS011;49285;49.002;8.390;2022-08-19T02:56:44;24.43;;;22.03;;
1879;SDS011;49285;49.002;8.390;2022-08-19T02:59:11;24.63;;;21.67;;
1879;SDS011;49285;49.002;8.390;2022-08-19T03:01:37;24.70;;;22.30;;
1879;SDS011;49285;49.002;8.390;2022-08-19T03:04:05;22.93;;;20.63;;
1879;SDS011;49285;49.002;8.390;2022-08-19T03:06:35;23.97;;;21.43;;
1879;SDS011;49285;49.002;8.390;2022-08-19T03:09:02;26.97;;;24.07;;
1879;SDS011;49285;49.002;8.390;2022-08-19T03:11:28;25.20;;;22.70;;
1879;SDS011;49285;49.002;8.390;2022-08-19T03:13:55;23.80;;;21.40;;
1879;SDS011;49285;49.002;8.390;2022-08-19T03:16:23;24.57;;;21.97;;
1879;SDS011;49285;49.002;8.390;2022-08-19T03:18:51;24.63;;;21.80;;
1879;SDS011;49285;49.002;8.390;2022-08-19T03:21:19;25.93;;;20.90;;
1879;SDS011;49285;49.002;8.390;2022-08-19T03:23:49;26.17;;;22.93;;
1879;SDS011;49285;49.002;8.390;2022-08-19T03:26:15;22.83;;;20.53;;
1879;SDS011;49285;49.002;8.390;2022-08-19T03:28:42;21.40;;;19.33;;
1879;SDS011;49285;49.002;8.390;2022-08-19T03:31:12;22.57;;;20.37;;
1879;SDS011;49285;49.002;8.390;2022-08-19T03:33:39;23.90;;;21.17;;
1879;SDS011;49285;49.002;8.390;2022-08-19T03:38:39;22.57;;;20.27;;
1879;SDS011;49285;49.002;8.390;2022-08-19T03:41:08;26.07;;;22.57;;
1879;SDS011;49285;49.002;8.390;2022-08-19T03:43:40;24.50;;;22.10;;
1879;SDS011;49285;49.002;8.390;2022-08-19T03:46:08;23.57;;;21.03;;
1879;SDS011;49285;49.002;8.390;2022-08-19T03:48:36;23.90;;;21.50;;
1879;SDS011;49285;49.002;8.390;2022-08-19T03:51:04;25.07;;;22.67;;
1879;SDS011;49285;49.002;8.390;2022-08-19T03:53:31;26.17;;;23.57;;
1879;SDS011;49285;49.002;8.390;2022-08-19T03:55:59;27.17;;;22.13;;
1879;SDS011;49285;49.002;8.390;2022-08-19T03:58:25;25.17;;;22.20;;
1879;SDS011;49285;49.002;8.390;2022-08-19T04:00:53;24.53;;;21.80;;
1879;SDS011;49285;49.002;8.390;2022-08-19T04:03:22;25.07;;;22.57;;
1879;SDS011;49285;49.002;8.390;2022-08-19T04:05:49;23.80;;;20.70;;
1879;SDS011;49285;49.002;8.390;2022-08-19T04:08:15;24.70;;;22.20;;
1879;SDS011;49285;49.002;8.390;2022-08-19T04:10:43;25.03;;;22.57;;
1879;SDS011;49285;49.002;8.390;2022-08-19T04:13:09;24.40;;;21.63;;
1879;SDS011;49285;49.002;8.390;2022-08-19T04:15:39;27.00;;;22.40;;
1879;SDS011;49285;49.002;8.390;2022-08-19T04:18:06;27.17;;;22.90;;
1879;SDS011;49285;49.002;8.390;2022-08-19T04:20:38;26.67;;;23.93;;
1879;SDS011;49285;49.002;8.390;2022-08-19T04:23:04;25.93;;;23.33;;
1879;SDS011;49285;49.002;8.390;2022-08-19T04:25:34;26.57;;;23.77;;
1879;SDS011;49285;49.002;8.390;2022-08-19T04:28:02;26.30;;;23.60;;
1879;SDS011;49285;49.002;8.390;2022-08-19T04:30:27;27.70;;;24.47;;
1879;SDS011;49285;49.002;8.390;2022-08-19T04:32:53;27.73;;;24.93;;
1879;SDS011;49285;49.002;8.390;2022-08-19T04:35:19;28.70;;;25.60;;
1879;SDS011;49285;49.002;8.390;2022-08-19T04:37:44;27.40;;;24.30;;
1879;SDS011;49285;49.002;8.390;2022-08-19T04:40:10;28.87;;;26.10;;
1879;SDS011;49285;49.002;8.390;2022-08-19T04:42:54;26.20;;;23.50;;
1879;SDS011;49285;49.002;8.390;2022-08-19T04:45:21;27.17;;;23.93;;
1879;SDS011;49285;49.002;8.390;2022-08-19T04:47:47;26.63;;;23.83;;
1879;SDS011;49285;49.002;8.390;2022-08-19T04:50:13;28.67;;;23.60;;
1879;SDS011;49285;49.002;8.390;2022-08-19T04:52:38;27.57;;;24.77;;
1879;SDS011;49285;49.002;8.390;2022-08-19T04:55:08;27.90;;;25.00;;
1879;SDS011;49285;49.002;8.390;2022-08-19T04:57:37;28.50;;;23.50;;
1879;SDS011;49285;49.002;8.390;2022-08-19T05:00:05;27.03;;;24.07;;
1879;SDS011;49285;49.002;8.390;2022-08-19T05:02:33;24.67;;;22.10;;
1879;SDS011;49285;49.002;8.390;2022-08-19T05:04:58;27.90;;;24.63;;
1879;SDS011;49285;49.002;8.390;2022-08-19T05:07:27;24.63;;;22.13;;
1879;SDS011;49285;49.002;8.390;2022-08-19T05:09:54;29.87;;;24.60;;
1879;SDS011;49285;49.002;8.390;2022-08-19T05:12:20;27.80;;;23.90;;
1879;SDS011;49285;49.002;8.390;2022-08-19T05:14:46;25.90;;;23.00;;
1879;SDS011;49285;49.002;8.390;2022-08-19T05:17:12;27.57;;;23.40;;
1879;SDS011;49285;49.002;8.390;2022-08-19T05:19:38;24.80;;;22.10;;
1879;SDS011;49285;49.002;8.390;2022-08-19T05:22:22;25.90;;;23.07;;
1879;SDS011;49285;49.002;8.390;2022-08-19T05:25:08;25.37;;;22.53;;
1879;SDS011;49285;49.002;8.390;2022-08-19T05:27:37;25.33;;;22.60;;
1879;SDS011;49285;49.002;8.390;2022-08-19T05:30:03;25.67;;;22.73;;
1879;SDS011;49285;49.002;8.390;2022-08-19T05:32:29;25.43;;;22.80;;
1879;SDS011;49285;49.002;8.390;2022-08-19T05:34:55;24.77;;;21.10;;
1879;SDS011;49285;49.002;8.390;2022-08-19T05:37:21;25.90;;;22.37;;
1879;SDS011;49285;49.002;8.390;2022-08-19T05:39:48;25.20;;;22.70;;
1879;SDS011;49285;49.002;8.390;2022-08-19T05:42:14;24.87;;;22.27;;
1879;SDS011;49285;49.002;8.390;2022-08-19T05:44:41;28.13;;;23.47;;
1879;SDS011;49285;49.002;8.390;2022-08-19T05:47:12;24.13;;;21.63;;
1879;SDS011;49285;49.002;8.390;2022-08-19T05:49:39;24.67;;;21.87;;
1879;SDS011;49285;49.002;8.390;2022-08-19T05:52:07;24.03;;;20.83;;
1879;SDS011;49285;49.002;8.390;2022-08-19T05:57:15;24.60;;;22.10;;
1879;SDS011;49285;49.002;8.390;2022-08-19T05:59:42;23.70;;;21.40;;
1879;SDS011;49285;49.002;8.390;2022-08-19T06:02:08;23.00;;;20.60;;
1879;SDS011;49285;49.002;8.390;2022-08-19T06:04:34;23.80;;;21.40;;
1879;SDS011;49285;49.002;8.390;2022-08-19T06:07:00;26.07;;;21.50;;
1879;SDS011;49285;49.002;8.390;2022-08-19T06:09:26;23.77;;;21.30;;
1879;SDS011;49285;49.002;8.390;2022-08-19T06:11:53;26.10;;;23.40;;
1879;SDS011;49285;49.002;8.390;2022-08-19T06:14:23;23.33;;;20.93;;
1879;SDS011;49285;49.002;8.390;2022-08-19T06:16:50;26.00;;;21.23;;
1879;SDS011;49285;49.002;8.390;2022-08-19T06:19:17;24.67;;;22.07;;
1879;SDS011;49285;49.002;8.390;2022-08-19T06:21:45;23.37;;;21.00;;
1879;SDS011;49285;49.002;8.390;2022-08-19T06:24:14;23.83;;;21.43;;
1879;SDS011;49285;49.002;8.390;2022-08-19T06:26:41;25.63;;;22.93;;
1879;SDS011;49285;49.002;8.390;2022-08-19T06:29:10;23.03;;;20.07;;
1879;SDS011;49285;49.002;8.390;2022-08-19T06:31:37;24.03;;;21.73;;
1879;SDS011;49285;49.002;8.390;2022-08-19T06:34:05;23.80;;;21.40;;
1879;SDS011;49285;49.002;8.390;2022-08-19T06:36:32;22.13;;;19.90;;
1879;SDS011;49285;49.002;8.390;2022-08-19T06:39:06;24.23;;;21.60;;
1879;SDS011;49285;49.002;8.390;2022-08-19T06:41:37;22.03;;;19.40;;
1879;SDS011;49285;49.002;8.390;2022-08-19T06:44:04;22.50;;;20.20;;
1879;SDS011;49285;49.002;8.390;2022-08-19T06:46:30;23.57;;;21.10;;
1879;SDS011;49285;49.002;8.390;2022-08-19T06:48:56;25.30;;;22.60;;
1879;SDS011;49285;49.002;8.390;2022-08-19T06:51:22;24.67;;;22.17;;
1879;SDS011;49285;49.002;8.390;2022-08-19T06:53:50;24.73;;;21.60;;
1879;SDS011;49285;49.002;8.390;2022-08-19T06:56:18;22.60;;;20.40;;
1879;SDS011;49285;49.002;8.390;2022-08-19T06:58:46;22.07;;;19.67;;
1879;SDS011;49285;49.002;8.390;2022-08-19T07:01:12;23.60;;;21.00;;
1879;SDS011;49285;49.002;8.390;2022-08-19T07:03:38;24.10;;;20.80;;
1879;SDS011;49285;49.002;8.390;2022-08-19T07:06:09;21.80;;;19.60;;
1879;SDS011;49285;49.002;8.390;2022-08-19T07:08:36;23.37;;;20.87;;
1879;SDS011;49285;49.002;8.390;2022-08-19T07:11:08;20.93;;;18.80;;
1879;SDS011;49285;49.002;8.390;2022-08-19T07:13:35;21.57;;;18.87;;
1879;SDS011;49285;49.002;8.390;2022-08-19T07:16:12;20.80;;;18.53;;
1879;SDS011;49285;49.002;8.390;2022-08-19T07:18:40;21.43;;;18.67;;
1879;SDS011;49285;49.002;8.390;2022-08-19T07:21:08;20.97;;;18.70;;
1879;SDS011;49285;49.002;8.390;2022-08-19T07:23:41;19.07;;;17.17;;
1879;SDS011;49285;49.002;8.390;2022-08-19T07:26:09;21.20;;;19.20;;
1879;SDS011;49285;49.002;8.390;2022-08-19T07:28:44;20.20;;;18.30;;
1879;SDS011;49285;49.002;8.390;2022-08-19T07:31:11;22.80;;;18.23;;
1879;SDS011;49285;49.002;8.390;2022-08-19T07:33:38;21.40;;;19.30;;
1879;SDS011;49285;49.002;8.390;2022-08-19T07:36:06;20.50;;;18.60;;
1879;SDS011;49285;49.002;8.390;2022-08-19T07:38:33;20.67;;;18.70;;
1879;SDS011;49285;49.002;8.390;2022-08-19T07:40:59;22.47;;;20.13;;
1879;SDS011;49285;49.002;8.390;2022-08-19T07:43:25;18.47;;;16.67;;
1879;SDS011;49285;49.002;8.390;2022-08-19T07:45:52;22.23;;;17.83;;
1879;SDS011;49285;49.002;8.390;2022-08-19T07:48:21;18.30;;;16.60;;
1879;SDS011;49285;49.002;8.390;2022-08-19T07:50:50;18.57;;;16.70;;
1879;SDS011;49285;49.002;8.390;2022-08-19T07:53:16;18.37;;;16.57;;
1879;SDS011;49285;49.002;8.390;2022-08-19T07:55:42;18.07;;;16.33;;
1879;SDS011;49285;49.002;8.390;2022-08-19T07:58:08;20.60;;;18.20;;
1879;SDS011;49285;49.002;8.390;2022-08-19T08:00:34;18.80;;;17.00;;
1879;SDS011;49285;49.002;8.390;2022-08-19T08:03:00;17.07;;;15.50;;
1879;SDS011;49285;49.002;8.390;2022-08-19T08:05:26;17.90;;;16.00;;
1879;SDS011;49285;49.002;8.390;2022-08-19T08:08:11;16.50;;;14.90;;
1879;SDS011;49285;49.002;8.390;2022-08-19T08:10:55;16.10;;;14.60;;
1879;SDS011;49285;49.002;8.390;2022-08-19T08:13:21;17.43;;;15.70;;
1879;SDS011;49285;49.002;8.390;2022-08-19T08:15:46;18.60;;;16.80;;
1879;SDS011;49285;49.002;8.390;2022-08-19T08:18:12;19.53;;;14.90;;
1879;SDS011;49285;49.002;8.390;2022-08-19T08:20:38;15.63;;;14.03;;
1879;SDS011;49285;49.002;8.390;2022-08-19T08:23:04;16.53;;;15.03;;
1879;SDS011;49285;49.002;8.390;2022-08-19T08:25:49;17.33;;;15.63;;
1879;SDS011;49285;49.002;8.390;2022-08-19T08:28:16;16.07;;;13.70;;
1879;SDS011;49285;49.002;8.390;2022-08-19T08:30:42;15.60;;;14.20;;
1879;SDS011;49285;49.002;8.390;2022-08-19T08:33:10;16.40;;;14.70;;
1879;SDS011;49285;49.002;8.390;2022-08-19T08:35:36;17.33;;;13.30;;
1879;SDS011;49285;49.002;8.390;2022-08-19T08:38:02;13.77;;;12.67;;
1879;SDS011;49285;49.002;8.390;2022-08-19T08:40:32;15.47;;;13.97;;
1879;SDS011;49285;49.002;8.390;2022-08-19T08:43:09;15.17;;;13.67;;
1879;SDS011;49285;49.002;8.390;2022-08-19T08:48:34;13.43;;;12.07;;
1879;SDS011;49285;49.002;8.390;2022-08-19T08:51:06;14.40;;;12.53;;
1879;SDS011;49285;49.002;8.390;2022-08-19T08:53:36;12.57;;;11.37;;
1879;SDS011;49285;49.002;8.390;2022-08-19T08:56:03;13.33;;;11.90;;
1879;SDS011;49285;49.002;8.390;2022-08-19T08:58:36;14.33;;;11.50;;
1879;SDS011;49285;49.002;8.390;2022-08-19T09:01:11;12.20;;;10.80;;
1879;SDS011;49285;49.002;8.390;2022-08-19T09:03:37;12.93;;;11.63;;
1879;SDS011;49285;49.002;8.390;2022-08-19T09:06:18;12.47;;;11.27;;
1879;SDS011;49285;49.002;8.390;2022-08-19T09:09:05;13.43;;;11.70;;
1879;SDS011;49285;49.002;8.390;2022-08-19T09:12:04;11.87;;;10.77;;
1879;SDS011;49285;49.002;8.390;2022-08-19T09:17:06;11.53;;;10.33;;
1879;SDS011;49285;49.002;8.390;2022-08-19T09:19:35;10.33;;;9.10;;
1879;SDS011;49285;49.002;8.390;2022-08-19T09:22:01;11.63;;;9.40;;
1879;SDS011;49285;49.002;8.390;2022-08-19T09:24:27;11.80;;;10.63;;
1879;SDS011;49285;49.002;8.390;2022-08-19T09:26:52;10.63;;;9.47;;
1879;SDS011;49285;49.002;8.390;2022-08-19T09:29:18;11.10;;;9.87;;
1879;SDS011;49285;49.002;8.390;2022-08-19T09:31:45;10.57;;;9.63;;
1879;SDS011;49285;49.002;8.390;2022-08-19T09:34:11;10.77;;;9.70;;
1879;SDS011;49285;49.002;8.390;2022-08-19T09:36:37;11.57;;;9.80;;
1879;SDS011;49285;49.002;8.390;2022-08-19T09:39:04;15.83;;;9.90;;
1879;SDS011;49285;49.002;8.390;2022-08-19T09:41:30;12.20;;;10.30;;
1879;SDS011;49285;49.002;8.390;2022-08-19T09:43:57;9.87;;;8.53;;
1879;SDS011;49285;49.002;8.390;2022-08-19T09:46:25;11.57;;;10.37;;
1879;SDS011;49285;49.002;8.390;2022-08-19T09:48:52;10.50;;;9.40;;
1879;SDS011;49285;49.002;8.390;2022-08-19T09:51:22;10.80;;;9.13;;
1879;SDS011;49285;49.002;8.390;2022-08-19T09:53:50;8.87;;;7.97;;
1879;SDS011;49285;49.002;8.390;2022-08-19T09:56:19;10.20;;;9.20;;
1879;SDS011;49285;49.002;8.390;2022-08-19T09:58:46;9.53;;;8.53;;
1879;SDS011;49285;49.002;8.390;2022-08-19T10:01:22;10.80;;;8.80;;
1879;SDS011;49285;49.002;8.390;2022-08-19T10:03:50;9.13;;;8.23;;
1879;SDS011;49285;49.002;8.390;2022-08-19T10:06:19;9.47;;;8.57;;
1879;SDS011;49285;49.002;8.390;2022-08-19T10:08:46;8.07;;;7.27;;
1879;SDS011;49285;49.002;8.390;2022-08-19T10:11:12;9.83;;;9.03;;
1879;SDS011;49285;49.002;8.390;2022-08-19T10:13:41;9.30;;;8.40;;
1879;SDS011;49285;49.002;8.390;2022-08-19T10:16:08;10.67;;;9.67;;
1879;SDS011;49285;49.002;8.390;2022-08-19T10:18:37;9.97;;;8.90;;
1879;SDS011;49285;49.002;8.390;2022-08-19T10:21:07;8.93;;;8.03;;
1879;SDS011;49285;49.002;8.390;2022-08-19T10:23:35;11.90;;;9.40;;
1879;SDS011;49285;49.002;8.390;2022-08-19T10:26:03;10.00;;;9.10;;
1879;SDS011;49285;49.002;8.390;2022-08-19T10:28:31;9.73;;;8.83;;
1879;SDS011;49285;49.002;8.390;2022-08-19T10:31:06;9.07;;;8.27;;
1879;SDS011;49285;49.002;8.390;2022-08-19T10:33:33;9.73;;;8.80;;
1879;SDS011;49285;49.002;8.390;2022-08-19T10:36:10;8.93;;;8.13;;
1879;SDS011;49285;49.002;8.390;2022-08-19T10:38:40;8.43;;;7.73;;
1879;SDS011;49285;49.002;8.390;2022-08-19T10:41:16;9.23;;;8.40;;
1879;SDS011;49285;49.002;8.390;2022-08-19T10:43:43;8.70;;;8.00;;
1879;SDS011;49285;49.002;8.390;2022-08-19T10:46:10;9.90;;;9.00;;
1879;SDS011;49285;49.002;8.390;2022-08-19T10:48:38;9.47;;;8.67;;
1879;SDS011;49285;49.002;8.390;2022-08-19T10:51:04;9.10;;;8.40;;
1879;SDS011;49285;49.002;8.390;2022-08-19T10:53:48;9.23;;;8.43;;
1879;SDS011;49285;49.002;8.390;2022-08-19T10:56:14;8.80;;;8.10;;
1879;SDS011;49285;49.002;8.390;2022-08-19T10:58:59;9.50;;;8.63;;
1879;SDS011;49285;49.002;8.390;2022-08-19T11:01:25;10.30;;;9.30;;
1879;SDS011;49285;49.002;8.390;2022-08-19T11:03:51;9.87;;;9.03;;
1879;SDS011;49285;49.002;8.390;2022-08-19T11:06:17;10.40;;;9.40;;
1879;SDS011;49285;49.002;8.390;2022-08-19T11:08:44;9.70;;;8.90;;
1879;SDS011;49285;49.002;8.390;2022-08-19T11:11:10;9.53;;;8.73;;
1879;SDS011;49285;49.002;8.390;2022-08-19T11:13:38;10.67;;;9.73;;
1879;SDS011;49285;49.002;8.390;2022-08-19T11:18:40;11.23;;;10.23;;
1879;SDS011;49285;49.002;8.390;2022-08-19T11:24:02;10.30;;;9.40;;
1879;SDS011;49285;49.002;8.390;2022-08-19T11:26:31;9.80;;;9.00;;
1879;SDS011;49285;49.002;8.390;2022-08-19T11:28:58;9.87;;;9.07;;
1879;SDS011;49285;49.002;8.390;2022-08-19T11:31:26;10.40;;;9.60;;
1879;SDS011;49285;49.002;8.390;2022-08-19T11:33:53;10.17;;;9.30;;
1879;SDS011;49285;49.002;8.390;2022-08-19T11:36:21;11.33;;;9.50;;
1879;SDS011;49285;49.002;8.390;2022-08-19T11:38:48;11.30;;;10.40;;
1879;SDS011;49285;49.002;8.390;2022-08-19T11:41:14;10.73;;;9.83;;
1879;SDS011;49285;49.002;8.390;2022-08-19T11:43:42;9.80;;;9.00;;
1879;SDS011;49285;49.002;8.390;2022-08-19T11:46:09;9.67;;;8.70;;
1879;SDS011;49285;49.002;8.390;2022-08-19T11:48:36;11.93;;;10.90;;
1879;SDS011;49285;49.002;8.390;2022-08-19T11:51:04;10.90;;;10.00;;
1879;SDS011;49285;49.002;8.390;2022-08-19T11:53:32;10.10;;;9.27;;
1879;SDS011;49285;49.002;8.390;2022-08-19T11:55:59;9.17;;;8.40;;
1879;SDS011;49285;49.002;8.390;2022-08-19T11:58:24;11.83;;;10.60;;
1879;SDS011;49285;49.002;8.390;2022-08-19T12:00:50;10.07;;;8.80;;
1879;SDS011;49285;49.002;8.390;2022-08-19T12:03:17;10.60;;;9.60;;
1879;SDS011;49285;49.002;8.390;2022-08-19T12:05:44;10.40;;;9.47;;
1879;SDS011;49285;49.002;8.390;2022-08-19T12:08:10;10.00;;;9.07;;
1879;SDS011;49285;49.002;8.390;2022-08-19T12:10:37;9.80;;;8.80;;
1879;SDS011;49285;49.002;8.390;2022-08-19T12:13:04;8.60;;;7.90;;
1879;SDS011;49285;49.002;8.390;2022-08-19T12:15:34;8.73;;;8.00;;
1879;SDS011;49285;49.002;8.390;2022-08-19T12:18:05;9.20;;;8.47;;
1879;SDS011;49285;49.002;8.390;2022-08-19T12:20:34;9.20;;;8.40;;
1879;SDS011;49285;49.002;8.390;2022-08-19T12:23:05;9.27;;;8.47;;
1879;SDS011;49285;49.002;8.390;2022-08-19T12:25:32;10.10;;;9.20;;
1879;SDS011;49285;49.002;8.390;2022-08-19T12:27:59;9.50;;;8.70;;
1879;SDS011;49285;49.002;8.390;2022-08-19T12:30:25;9.87;;;8.87;;
1879;SDS011;49285;49.002;8.390;2022-08-19T12:32:51;9.70;;;8.80;;
1879;SDS011;49285;49.002;8.390;2022-08-19T12:35:17;9.37;;;8.63;;
1879;SDS011;49285;49.002;8.390;2022-08-19T12:37:44;10.33;;;9.43;;
1879;SDS011;49285;49.002;8.390;2022-08-19T12:40:11;9.40;;;8.70;;
1879;SDS011;49285;49.002;8.390;2022-08-19T12:42:37;9.30;;;8.60;;
1879;SDS011;49285;49.002;8.390;2022-08-19T12:45:10;9.73;;;8.83;;
1879;SDS011;49285;49.002;8.390;2022-08-19T12:47:39;9.53;;;8.63;;
1879;SDS011;49285;49.002;8.390;2022-08-19T12:50:05;9.67;;;8.70;;
1879;SDS011;49285;49.002;8.390;2022-08-19T12:52:33;8.73;;;8.00;;
1879;SDS011;49285;49.002;8.390;2022-08-19T12:55:02;9.23;;;8.43;;
1879;SDS011;49285;49.002;8.390;2022-08-19T12:57:30;8.87;;;8.23;;
1879;SDS011;49285;49.002;8.390;2022-08-19T12:59:58;8.73;;;8.13;;
1879;SDS011;49285;49.002;8.390;2022-08-19T13:02:32;8.27;;;7.70;;
1879;SDS011;49285;49.002;8.390;2022-08-19T13:04:59;7.70;;;7.10;;
1879;SDS011;49285;49.002;8.390;2022-08-19T13:07:25;7.83;;;7.23;;
1879;SDS011;49285;49.002;8.390;2022-08-19T13:09:51;7.40;;;6.90;;
1879;SDS011;49285;49.002;8.390;2022-08-19T13:12:17;7.50;;;6.90;;
1879;SDS011;49285;49.002;8.390;2022-08-19T13:14:45;7.30;;;6.70;;
1879;SDS011;49285;49.002;8.390;2022-08-19T13:17:15;7.00;;;6.50;;
1879;SDS011;49285;49.002;8.390;2022-08-19T13:19:41;7.33;;;6.73;;
1879;SDS011;49285;49.002;8.390;2022-08-19T13:22:07;6.93;;;6.43;;
1879;SDS011;49285;49.002;8.390;2022-08-19T13:24:33;7.50;;;6.90;;
1879;SDS011;49285;49.002;8.390;2022-08-19T13:26:59;6.57;;;6.07;;
1879;SDS011;49285;49.002;8.390;2022-08-19T13:29:25;5.13;;;4.73;;
1879;SDS011;49285;49.002;8.390;2022-08-19T13:32:10;6.00;;;5.53;;
1879;SDS011;49285;49.002;8.390;2022-08-19T13:34:54;6.77;;;5.30;;
1879;SDS011;49285;49.002;8.390;2022-08-19T13:37:19;5.60;;;5.10;;
1879;SDS011;49285;49.002;8.390;2022-08-19T13:40:05;5.00;;;4.60;;
1879;SDS011;49285;49.002;8.390;2022-08-19T13:42:37;5.23;;;4.87;;
1879;SDS011;49285;49.002;8.390;2022-08-19T13:45:04;5.63;;;5.13;;
1879;SDS011;49285;49.002;8.390;2022-08-19T13:47:31;5.47;;;4.97;;
1879;SDS011;49285;49.002;8.390;2022-08-19T13:49:59;5.07;;;4.77;;
1879;SDS011;49285;49.002;8.390;2022-08-19T13:52:25;4.67;;;4.27;;
1879;SDS011;49285;49.002;8.390;2022-08-19T13:54:51;5.93;;;5.37;;
1879;SDS011;49285;49.002;8.390;2022-08-19T13:57:16;4.40;;;4.10;;
1879;SDS011;49285;49.002;8.390;2022-08-19T13:59:42;5.00;;;4.60;;
1879;SDS011;49285;49.002;8.390;2022-08-19T14:02:08;5.53;;;4.97;;
1879;SDS011;49285;49.002;8.390;2022-08-19T14:04:33;5.20;;;4.80;;
1879;SDS011;49285;49.002;8.390;2022-08-19T14:06:59;5.47;;;5.07;;
1879;SDS011;49285;49.002;8.390;2022-08-19T14:09:24;5.97;;;5.57;;
1879;SDS011;49285;49.002;8.390;2022-08-19T14:11:50;5.67;;;5.20;;
1879;SDS011;49285;49.002;8.390;2022-08-19T14:14:16;5.80;;;5.40;;
1879;SDS011;49285;49.002;8.390;2022-08-19T14:16:41;5.43;;;5.03;;
1879;SDS011;49285;49.002;8.390;2022-08-19T14:19:07;5.30;;;4.90;;
1879;SDS011;49285;49.002;8.390;2022-08-19T14:21:33;6.13;;;5.63;;
1879;SDS011;49285;49.002;8.390;2022-08-19T14:23:59;6.33;;;5.40;;
1879;SDS011;49285;49.002;8.390;2022-08-19T14:26:26;6.50;;;6.00;;
1879;SDS011;49285;49.002;8.390;2022-08-19T14:28:51;8.03;;;6.17;;
1879;SDS011;49285;49.002;8.390;2022-08-19T14:31:18;5.70;;;5.30;;
1879;SDS011;49285;49.002;8.390;2022-08-19T14:33:45;6.20;;;5.70;;
1879;SDS011;49285;49.002;8.390;2022-08-19T14:36:12;6.20;;;5.70;;
1879;SDS011;49285;49.002;8.390;2022-08-19T14:38:37;6.13;;;5.63;;
1879;SDS011;49285;49.002;8.390;2022-08-19T14:41:08;5.80;;;5.40;;
1879;SDS011;49285;49.002;8.390;2022-08-19T14:43:36;6.97;;;6.47;;
1879;SDS011;49285;49.002;8.390;2022-08-19T14:46:01;5.67;;;5.17;;
1879;SDS011;49285;49.002;8.390;2022-08-19T14:48:27;5.83;;;5.40;;
1879;SDS011;49285;49.002;8.390;2022-08-19T14:50:53;7.87;;;6.00;;
1879;SDS011;49285;49.002;8.390;2022-08-19T14:53:18;7.00;;;5.63;;
1879;SDS011;49285;49.002;8.390;2022-08-19T14:55:44;5.53;;;5.10;;
1879;SDS011;49285;49.002;8.390;2022-08-19T14:58:11;6.00;;;5.53;;
1879;SDS011;49285;49.002;8.390;2022-08-19T15:00:38;6.53;;;6.00;;
1879;SDS011;49285;49.002;8.390;2022-08-19T15:03:03;6.33;;;5.73;;
1879;SDS011;49285;49.002;8.390;2022-08-19T15:05:29;6.10;;;5.60;;